Time;durP1;ratioP1;P1;durP2;ratioP2;P2;SDS_P1;SDS_P2;PMS_P1;PMS_P2;Temp;Humidity;BMP_temperature;BMP_pressure;BME280_temperature;BME280_humidity;BME280_pressure;Samples;Min_cycle;Max_cycle;Signal;HPM_P1;HPM_P2
2024/01/18 00:00:27;;;;;;;11.10;6.40;;;-0.40;99.90;;;;;;5074746;28;20021;-76
2024/01/18 00:02:53;;;;;;;19.00;7.63;;;-0.40;99.90;;;;;;5056998;28;20120;-76
2024/01/18 00:05:18;;;;;;;18.92;8.07;;;-0.30;99.90;;;;;;5057102;28;20062;-77
2024/01/18 00:07:44;;;;;;;16.48;7.88;;;-0.40;99.90;;;;;;5074743;28;20036;-76
2024/01/18 00:10:10;;;;;;;16.23;7.78;;;-0.40;99.90;;;;;;5056716;28;20021;-76
2024/01/18 00:12:37;;;;;;;15.50;8.20;;;-0.40;99.90;;;;;;5074793;28;20035;-76
2024/01/18 00:15:03;;;;;;;14.88;6.50;;;-0.40;99.90;;;;;;5074726;28;20027;-75
2024/01/18 00:17:29;;;;;;;21.23;8.55;;;-0.40;99.90;;;;;;5074452;28;20510;-76
2024/01/18 00:19:54;;;;;;;11.57;6.43;;;-0.40;99.90;;;;;;5072958;28;20092;-76
2024/01/18 00:22:20;;;;;;;18.92;7.53;;;-0.30;99.90;;;;;;5074538;28;20036;-76
2024/01/18 00:24:46;;;;;;;13.52;7.25;;;-0.30;99.90;;;;;;5074461;28;20386;-76
2024/01/18 00:27:12;;;;;;;16.13;8.27;;;-0.30;99.90;;;;;;5074538;28;20021;-76
2024/01/18 00:29:37;;;;;;;12.30;7.05;;;-0.30;99.90;;;;;;5074089;28;20033;-76
2024/01/18 00:32:03;;;;;;;19.27;7.50;;;-0.20;99.90;;;;;;5056399;28;20024;-76
2024/01/18 00:34:29;;;;;;;16.55;7.45;;;-0.20;99.90;;;;;;5074083;28;20108;-76
2024/01/18 00:36:55;;;;;;;11.20;6.82;;;-0.20;99.90;;;;;;5074269;28;20099;-77
2024/01/18 00:39:21;;;;;;;18.92;7.90;;;-0.10;99.90;;;;;;5055928;28;20051;-76
2024/01/18 00:41:48;;;;;;;15.98;7.90;;;-0.10;99.90;;;;;;5074142;28;20032;-76
2024/01/18 00:44:14;;;;;;;17.40;8.13;;;0.00;99.90;;;;;;5056109;28;20547;-76
2024/01/18 00:46:40;;;;;;;18.58;7.47;;;0.00;99.90;;;;;;5056567;28;20064;-76
2024/01/18 00:49:06;;;;;;;21.75;8.63;;;0.10;99.90;;;;;;5073963;28;20113;-77
2024/01/18 00:51:31;;;;;;;13.75;7.72;;;0.10;99.90;;;;;;5074423;28;20032;-77
2024/01/18 00:53:57;;;;;;;14.43;6.70;;;0.10;99.90;;;;;;5056083;28;20028;-77
2024/01/18 00:56:22;;;;;;;15.38;8.43;;;0.00;99.90;;;;;;5073917;28;20031;-77
2024/01/18 00:58:49;;;;;;;13.57;6.55;;;0.10;99.90;;;;;;5073419;28;20029;-76
2024/01/18 01:01:15;;;;;;;15.05;7.50;;;0.10;99.90;;;;;;5055699;28;20021;-76
2024/01/18 01:03:41;;;;;;;12.43;6.78;;;0.10;99.90;;;;;;5073795;28;20021;-76
2024/01/18 01:06:10;;;;;;;13.73;8.07;;;0.10;99.90;;;;;;5073561;28;20406;-77
2024/01/18 01:08:36;;;;;;;15.35;7.55;;;0.20;99.90;;;;;;5055264;28;20039;-76
2024/01/18 01:11:05;;;;;;;13.55;6.95;;;0.20;99.90;;;;;;5073663;28;20025;-76
2024/01/18 01:13:31;;;;;;;13.70;6.95;;;0.20;99.90;;;;;;5073482;28;20414;-77
2024/01/18 01:15:57;;;;;;;14.50;6.63;;;0.20;99.90;;;;;;5055522;28;20518;-76
2024/01/18 01:18:23;;;;;;;16.55;8.18;;;0.20;99.90;;;;;;5072971;28;20077;-76
2024/01/18 01:20:48;;;;;;;18.15;7.90;;;0.20;99.90;;;;;;5073434;28;20107;-77
2024/01/18 01:23:15;;;;;;;12.88;6.78;;;0.30;99.90;;;;;;5073404;28;20021;-76
2024/01/18 01:25:40;;;;;;;15.40;7.68;;;0.30;99.90;;;;;;5073240;28;20048;-77
2024/01/18 01:28:06;;;;;;;16.17;6.97;;;0.20;99.90;;;;;;5072843;28;20082;-78
2024/01/18 01:30:32;;;;;;;14.93;7.78;;;0.30;99.90;;;;;;5072777;28;20028;-76
2024/01/18 01:32:58;;;;;;;12.98;6.80;;;0.20;99.90;;;;;;5073162;28;20028;-77
2024/01/18 01:35:24;;;;;;;16.70;7.60;;;0.20;99.90;;;;;;5055162;28;20028;-77
2024/01/18 01:37:49;;;;;;;11.10;7.47;;;0.30;99.90;;;;;;5072819;28;20477;-76
2024/01/18 01:40:15;;;;;;;14.85;6.60;;;0.40;99.90;;;;;;5072831;28;20021;-77
2024/01/18 01:42:41;;;;;;;12.75;6.57;;;0.40;99.90;;;;;;5072950;28;20589;-76
2024/01/18 01:45:07;;;;;;;20.60;7.20;;;0.40;99.90;;;;;;5054885;28;20107;-76
2024/01/18 01:47:33;;;;;;;16.85;7.75;;;0.40;99.90;;;;;;5054690;28;20020;-77
2024/01/18 01:50:00;;;;;;;15.50;7.18;;;0.40;99.90;;;;;;5072620;28;20070;-76
2024/01/18 01:52:28;;;;;;;13.52;6.90;;;0.40;99.90;;;;;;5072853;28;20029;-77
2024/01/18 01:54:54;;;;;;;19.42;7.90;;;0.40;99.90;;;;;;5072736;28;20025;-76
2024/01/18 01:57:20;;;;;;;18.30;8.50;;;0.30;99.90;;;;;;5072489;28;20052;-77
2024/01/18 01:59:47;;;;;;;15.70;7.60;;;0.30;99.90;;;;;;5072245;28;20067;-76
2024/01/18 02:02:13;;;;;;;16.67;7.22;;;0.30;99.90;;;;;;5072496;28;20021;-77
2024/01/18 02:04:39;;;;;;;16.35;7.07;;;0.30;99.90;;;;;;5054624;28;20078;-77
2024/01/18 02:07:06;;;;;;;15.65;6.97;;;0.30;99.90;;;;;;5072385;28;20035;-76
2024/01/18 02:09:32;;;;;;;18.05;7.05;;;0.30;99.90;;;;;;5072114;28;20021;-77
2024/01/18 02:11:59;;;;;;;12.20;5.75;;;0.30;99.90;;;;;;5072349;28;20642;-76
2024/01/18 02:14:25;;;;;;;12.48;5.82;;;0.40;99.90;;;;;;5072311;28;20029;-78
2024/01/18 02:16:51;;;;;;;14.82;5.90;;;0.50;99.90;;;;;;5072225;28;20021;-78
2024/01/18 02:19:17;;;;;;;7.55;5.32;;;0.50;99.90;;;;;;5071810;28;20390;-77
2024/01/18 02:21:43;;;;;;;14.75;6.43;;;0.50;99.90;;;;;;5054309;28;20025;-76
2024/01/18 02:24:16;;;;;;;11.73;6.25;;;0.50;99.90;;;;;;5054286;28;20025;-77
2024/01/18 02:26:42;;;;;;;11.40;5.05;;;0.50;99.90;;;;;;5054173;28;20059;-77
2024/01/18 02:29:08;;;;;;;11.35;4.80;;;0.50;99.90;;;;;;5053841;28;20090;-76
2024/01/18 02:31:33;;;;;;;7.95;4.30;;;0.50;99.90;;;;;;5054110;28;20565;-75
2024/01/18 02:33:59;;;;;;;10.88;4.55;;;0.50;99.90;;;;;;5072004;28;20039;-74
2024/01/18 02:36:25;;;;;;;6.70;3.35;;;0.50;99.90;;;;;;5054085;28;20031;-76
2024/01/18 02:38:52;;;;;;;8.40;4.15;;;0.60;99.90;;;;;;5071564;28;20054;-76
2024/01/18 02:41:18;;;;;;;7.68;4.50;;;0.60;99.90;;;;;;5072054;28;20471;-74
2024/01/18 02:43:44;;;;;;;8.27;4.25;;;0.60;99.90;;;;;;5071280;28;20021;-75
2024/01/18 02:46:14;;;;;;;10.00;4.88;;;0.70;99.90;;;;;;5071820;28;20027;-76
2024/01/18 02:48:40;;;;;;;9.40;4.78;;;0.60;99.90;;;;;;5070802;28;20032;-75
2024/01/18 02:51:05;;;;;;;8.48;3.97;;;0.60;99.90;;;;;;5070071;28;20040;-75
2024/01/18 02:53:31;;;;;;;7.03;3.30;;;0.70;99.90;;;;;;5069965;28;20440;-75
2024/01/18 02:55:57;;;;;;;5.22;3.40;;;0.90;99.90;;;;;;5053839;28;20668;-75
2024/01/18 02:58:22;;;;;;;13.05;3.65;;;1.00;99.90;;;;;;5053411;28;20206;-75
2024/01/18 03:00:48;;;;;;;8.48;4.38;;;0.80;99.90;;;;;;5053764;28;20024;-75
2024/01/18 03:03:14;;;;;;;8.25;3.30;;;0.80;99.90;;;;;;5071736;28;20028;-75
2024/01/18 03:05:40;;;;;;;7.47;3.63;;;0.80;99.90;;;;;;5053814;28;20016;-74
2024/01/18 03:08:06;;;;;;;6.80;3.58;;;0.80;99.90;;;;;;5071515;28;20079;-75
2024/01/18 03:10:32;;;;;;;7.25;3.53;;;0.80;99.90;;;;;;5053678;28;20056;-75
2024/01/18 03:12:57;;;;;;;10.85;4.45;;;0.80;99.90;;;;;;5053774;28;20032;-75
2024/01/18 03:15:23;;;;;;;10.63;5.75;;;0.80;99.90;;;;;;5071535;28;20021;-76
2024/01/18 03:17:49;;;;;;;13.70;7.10;;;0.80;99.90;;;;;;5053506;28;20463;-76
2024/01/18 03:20:14;;;;;;;12.95;5.57;;;0.90;99.90;;;;;;5071352;28;20375;-76
2024/01/18 03:22:40;;;;;;;9.55;5.38;;;0.90;99.90;;;;;;5053511;28;20103;-76
2024/01/18 03:25:07;;;;;;;22.58;7.45;;;0.90;99.90;;;;;;5071514;28;20021;-75
2024/01/18 03:27:33;;;;;;;8.20;5.85;;;0.80;99.90;;;;;;5053236;28;20020;-75
2024/01/18 03:29:59;;;;;;;11.13;5.47;;;0.80;99.90;;;;;;5053518;28;20074;-75
2024/01/18 03:32:24;;;;;;;7.28;5.20;;;0.80;99.90;;;;;;5071492;28;20478;-75
2024/01/18 03:34:50;;;;;;;15.50;6.85;;;0.80;99.90;;;;;;5071468;28;20390;-75
2024/01/18 03:37:16;;;;;;;15.90;6.28;;;0.80;99.90;;;;;;5053477;28;20448;-77
2024/01/18 03:39:42;;;;;;;13.77;5.88;;;0.80;99.90;;;;;;5070983;28;20048;-74
2024/01/18 03:42:07;;;;;;;11.35;5.38;;;0.80;99.90;;;;;;5053528;28;20021;-76
2024/01/18 03:44:34;;;;;;;13.02;6.00;;;0.80;99.90;;;;;;5071437;28;20024;-75
2024/01/18 03:47:00;;;;;;;10.95;5.95;;;0.90;99.90;;;;;;5071322;28;20100;-75
2024/01/18 03:49:26;;;;;;;11.85;6.10;;;0.80;99.90;;;;;;5053022;28;20462;-75
2024/01/18 03:51:51;;;;;;;14.23;8.05;;;1.00;99.90;;;;;;5071337;28;20491;-75
2024/01/18 03:54:20;;;;;;;17.90;5.88;;;0.90;99.90;;;;;;5072707;28;20052;-75
2024/01/18 03:56:47;;;;;;;11.23;5.57;;;1.00;99.90;;;;;;5056938;28;20035;-75
2024/01/18 03:59:15;;;;;;;13.75;5.15;;;0.90;99.90;;;;;;5074472;28;20406;-76
2024/01/18 04:01:41;;;;;;;14.13;5.70;;;1.00;99.90;;;;;;5074984;28;20024;-75
2024/01/18 04:04:07;;;;;;;7.45;4.22;;;1.00;99.90;;;;;;5056893;28;20112;-75
2024/01/18 04:06:33;;;;;;;18.13;7.63;;;1.00;99.90;;;;;;5074816;28;20503;-75
2024/01/18 04:08:58;;;;;;;11.23;6.45;;;1.00;99.90;;;;;;5074428;28;20121;-77
2024/01/18 04:11:24;;;;;;;12.68;6.05;;;1.00;99.90;;;;;;5074956;28;20021;-76
2024/01/18 04:13:50;;;;;;;11.95;5.85;;;1.10;99.90;;;;;;5074747;28;20052;-76
2024/01/18 04:16:15;;;;;;;17.67;6.30;;;1.00;99.90;;;;;;5077382;28;20111;-74
2024/01/18 04:18:42;;;;;;;11.57;5.68;;;0.90;99.90;;;;;;5066611;28;20469;-74
2024/01/18 04:21:07;;;;;;;9.60;4.72;;;1.00;99.90;;;;;;5067584;28;20021;-74
2024/01/18 04:23:33;;;;;;;15.77;6.38;;;0.90;99.90;;;;;;5066975;28;20042;-74
2024/01/18 04:25:59;;;;;;;11.15;5.65;;;0.90;99.90;;;;;;5066913;28;20021;-74
2024/01/18 04:28:24;;;;;;;10.13;5.35;;;0.90;99.90;;;;;;5084114;28;20036;-74
2024/01/18 04:30:50;;;;;;;13.50;5.32;;;0.90;99.90;;;;;;5085367;28;20576;-74
2024/01/18 04:33:18;;;;;;;17.00;5.25;;;1.00;99.90;;;;;;5085042;28;20054;-74
2024/01/18 04:35:44;;;;;;;9.55;4.85;;;1.00;99.90;;;;;;5067595;28;20028;-74
2024/01/18 04:38:10;;;;;;;9.95;5.28;;;1.10;99.90;;;;;;5066781;28;20028;-74
2024/01/18 04:40:35;;;;;;;10.00;5.00;;;1.10;99.90;;;;;;5067583;28;20021;-74
2024/01/18 04:43:01;;;;;;;8.30;4.28;;;1.10;99.90;;;;;;5085327;28;20027;-74
2024/01/18 04:45:27;;;;;;;11.10;5.25;;;1.20;99.90;;;;;;5084733;28;20026;-73
2024/01/18 04:47:53;;;;;;;11.75;5.90;;;1.20;99.90;;;;;;5084637;28;20032;-74
2024/01/18 04:50:24;;;;;;;12.98;5.22;;;1.30;99.90;;;;;;5066101;28;20028;-74
2024/01/18 04:52:53;;;;;;;9.05;5.25;;;1.20;99.90;;;;;;5084924;28;20021;-75
2024/01/18 04:55:19;;;;;;;12.93;4.90;;;1.30;99.90;;;;;;5066437;28;20032;-75
2024/01/18 04:57:45;;;;;;;8.20;4.32;;;1.40;99.90;;;;;;5085643;28;20025;-75
2024/01/18 05:00:11;;;;;;;8.70;4.65;;;1.40;99.90;;;;;;5085133;28;20088;-74
2024/01/18 05:02:41;;;;;;;7.15;4.13;;;1.40;99.90;;;;;;5067056;28;20452;-73
2024/01/18 05:05:08;;;;;;;7.53;4.38;;;1.50;99.90;;;;;;5084383;28;20027;-76
2024/01/18 05:07:38;;;;;;;10.60;4.90;;;1.40;99.90;;;;;;5084884;28;20072;-74
2024/01/18 05:10:04;;;;;;;7.22;4.13;;;1.40;99.90;;;;;;5067082;28;20024;-73
2024/01/18 05:12:30;;;;;;;9.20;4.43;;;1.40;99.90;;;;;;5084520;28;20021;-74
2024/01/18 05:14:56;;;;;;;6.82;4.00;;;1.40;99.90;;;;;;5085286;28;20021;-74
2024/01/18 05:17:22;;;;;;;8.23;4.38;;;1.50;99.90;;;;;;5066499;28;20119;-74
2024/01/18 05:19:47;;;;;;;10.02;6.05;;;1.40;99.90;;;;;;5084024;28;20028;-73
2024/01/18 05:22:13;;;;;;;10.18;5.40;;;1.50;99.90;;;;;;5079285;28;20038;-76
2024/01/18 05:24:40;;;;;;;5.45;4.45;;;1.40;99.90;;;;;;5075050;28;20090;-76
2024/01/18 05:27:07;;;;;;;8.82;4.78;;;1.50;99.90;;;;;;5056421;28;20039;-75
2024/01/18 05:29:33;;;;;;;7.97;4.60;;;1.40;99.90;;;;;;5073629;28;20033;-76
2024/01/18 05:31:58;;;;;;;12.77;5.22;;;1.40;99.90;;;;;;5056214;28;20024;-75
2024/01/18 05:34:24;;;;;;;7.40;4.88;;;1.40;99.90;;;;;;5056632;28;20032;-75
2024/01/18 05:36:50;;;;;;;10.73;5.63;;;1.40;99.90;;;;;;5074180;28;20020;-74
2024/01/18 05:39:15;;;;;;;9.25;4.43;;;1.80;99.90;;;;;;5073640;28;20103;-76
2024/01/18 05:41:41;;;;;;;9.55;4.63;;;1.50;99.90;;;;;;5073838;28;20112;-75
2024/01/18 05:44:07;;;;;;;13.80;4.63;;;1.50;99.90;;;;;;5073844;28;20509;-76
2024/01/18 05:46:32;;;;;;;7.25;3.97;;;1.50;99.90;;;;;;5055765;28;20044;-74
2024/01/18 05:48:58;;;;;;;7.13;4.22;;;1.60;99.90;;;;;;5055481;28;20060;-74
2024/01/18 05:51:23;;;;;;;9.35;4.43;;;1.60;99.90;;;;;;5073408;28;20025;-75
2024/01/18 05:53:49;;;;;;;9.55;3.67;;;1.60;99.90;;;;;;5073652;28;20036;-75
2024/01/18 05:56:15;;;;;;;6.40;3.95;;;1.60;99.90;;;;;;5073748;28;20027;-74
2024/01/18 05:58:40;;;;;;;6.78;3.25;;;1.70;99.90;;;;;;5054818;28;20556;-75
2024/01/18 06:01:06;;;;;;;6.60;3.90;;;1.80;99.90;;;;;;5072893;28;20028;-74
2024/01/18 06:03:32;;;;;;;7.60;4.97;;;1.80;99.90;;;;;;5073002;28;20051;-76
2024/01/18 06:06:00;;;;;;;9.95;4.50;;;1.80;99.90;;;;;;5072639;28;20021;-75
2024/01/18 06:08:26;;;;;;;7.05;4.00;;;1.80;99.90;;;;;;5054445;28;20036;-75
2024/01/18 06:10:53;;;;;;;11.38;5.18;;;1.80;99.90;;;;;;5072643;28;20027;-73
2024/01/18 06:13:20;;;;;;;6.90;4.10;;;1.80;99.90;;;;;;5054635;28;20494;-75
2024/01/18 06:15:45;;;;;;;16.35;6.63;;;1.90;99.90;;;;;;5072514;28;20025;-75
2024/01/18 06:18:11;;;;;;;47.67;13.70;;;1.90;99.90;;;;;;5054290;28;20378;-75
2024/01/18 06:20:36;;;;;;;51.13;15.80;;;1.80;99.90;;;;;;5072792;28;20016;-74
2024/01/18 06:23:02;;;;;;;24.92;8.07;;;1.80;99.90;;;;;;5073102;28;20501;-75
2024/01/18 06:25:28;;;;;;;11.02;5.35;;;1.80;99.90;;;;;;5072381;28;20021;-75
2024/01/18 06:27:54;;;;;;;13.90;5.07;;;1.80;99.90;;;;;;5072024;28;20040;-75
2024/01/18 06:30:19;;;;;;;6.05;3.55;;;1.90;99.90;;;;;;5054157;28;20436;-75
2024/01/18 06:32:45;;;;;;;8.88;4.35;;;1.80;99.90;;;;;;5055440;28;20398;-75
2024/01/18 06:35:11;;;;;;;7.55;3.65;;;1.90;99.90;;;;;;5054282;28;20032;-74
2024/01/18 06:37:38;;;;;;;6.43;3.60;;;2.00;99.90;;;;;;5072009;28;20032;-76
2024/01/18 06:40:04;;;;;;;8.70;6.07;;;2.00;99.90;;;;;;5053960;28;20059;-75
2024/01/18 06:42:31;;;;;;;7.75;3.97;;;2.00;99.90;;;;;;5072123;28;20029;-75
2024/01/18 06:44:57;;;;;;;7.28;3.40;;;1.90;99.90;;;;;;5053997;28;20429;-74
2024/01/18 06:47:22;;;;;;;8.35;4.85;;;1.90;99.90;;;;;;5073580;28;20044;-74
2024/01/18 06:49:48;;;;;;;8.18;4.00;;;1.90;99.90;;;;;;5091042;28;20024;-75
2024/01/18 06:52:14;;;;;;;12.13;4.90;;;1.90;99.90;;;;;;5073604;28;20051;-75
2024/01/18 06:54:43;;;;;;;12.63;6.57;;;2.20;99.90;;;;;;5092599;28;20472;-75
2024/01/18 06:57:09;;;;;;;16.50;5.50;;;2.20;99.90;;;;;;5092065;28;20024;-75
2024/01/18 06:59:35;;;;;;;10.10;5.25;;;2.20;99.90;;;;;;5075676;28;20025;-74
2024/01/18 07:02:01;;;;;;;14.30;5.00;;;2.30;99.90;;;;;;5075082;28;20020;-74
2024/01/18 07:04:26;;;;;;;14.80;4.35;;;2.20;99.90;;;;;;5074555;28;20057;-74
2024/01/18 07:06:52;;;;;;;16.65;5.20;;;2.10;99.90;;;;;;5073864;28;20048;-74
2024/01/18 07:09:18;;;;;;;25.70;5.55;;;2.00;99.90;;;;;;5091462;28;20031;-74
2024/01/18 07:11:43;;;;;;;21.10;5.40;;;2.00;99.90;;;;;;5091693;28;20115;-73
2024/01/18 07:14:09;;;;;;;11.20;4.10;;;1.90;99.90;;;;;;5091814;28;20030;-74
2024/01/18 07:16:34;;;;;;;14.18;4.07;;;2.00;99.90;;;;;;5091725;28;20409;-74
2024/01/18 07:19:00;;;;;;;15.98;4.97;;;1.90;99.90;;;;;;5091196;28;20504;-74
2024/01/18 07:21:26;;;;;;;14.07;4.95;;;2.00;99.90;;;;;;5091639;28;20034;-74
2024/01/18 07:23:51;;;;;;;9.77;5.03;;;2.00;99.90;;;;;;5073371;28;20052;-72
2024/01/18 07:26:18;;;;;;;9.32;4.32;;;2.00;99.90;;;;;;5091392;28;20107;-73
2024/01/18 07:28:44;;;;;;;15.93;5.05;;;2.00;99.90;;;;;;5091663;28;20502;-74
2024/01/18 07:31:10;;;;;;;8.10;4.78;;;2.00;99.90;;;;;;5095512;28;20035;-74
2024/01/18 07:33:37;;;;;;;5.20;3.53;;;2.00;99.90;;;;;;5095678;28;20028;-73
2024/01/18 07:36:03;;;;;;;11.88;4.95;;;2.00;99.90;;;;;;5095558;28;20551;-75
2024/01/18 07:38:28;;;;;;;12.32;5.05;;;2.00;99.90;;;;;;5077305;28;20023;-74
2024/01/18 07:40:54;;;;;;;10.63;5.90;;;2.00;99.90;;;;;;5094455;28;20024;-74
2024/01/18 07:43:20;;;;;;;13.77;5.45;;;2.10;99.90;;;;;;5094845;28;20501;-74
2024/01/18 07:45:45;;;;;;;12.13;4.85;;;2.10;99.90;;;;;;5095502;28;20036;-74
2024/01/18 07:48:11;;;;;;;8.95;4.28;;;2.00;99.90;;;;;;5095071;28;20026;-75
2024/01/18 07:50:37;;;;;;;11.63;4.15;;;2.10;99.90;;;;;;5075976;28;20036;-73
2024/01/18 07:53:03;;;;;;;8.00;4.07;;;2.10;99.90;;;;;;5076950;28;20081;-74
2024/01/18 07:55:29;;;;;;;11.48;5.68;;;2.10;99.90;;;;;;5095021;28;20112;-74
2024/01/18 07:57:55;;;;;;;8.77;5.22;;;2.20;99.90;;;;;;5076840;28;20116;-74
2024/01/18 08:00:20;;;;;;;11.32;4.90;;;2.30;99.90;;;;;;5076885;28;20504;-74
2024/01/18 08:02:46;;;;;;;11.60;4.88;;;2.30;99.90;;;;;;5095131;28;20028;-73
2024/01/18 08:05:12;;;;;;;9.20;5.82;;;2.40;99.90;;;;;;5095318;28;20027;-74
2024/01/18 08:07:38;;;;;;;13.18;6.07;;;2.40;99.90;;;;;;5095065;28;20021;-74
2024/01/18 08:10:06;;;;;;;14.00;5.88;;;2.40;99.90;;;;;;5094829;28;20085;-74
2024/01/18 08:12:31;;;;;;;14.25;6.68;;;2.50;99.90;;;;;;5076608;28;20451;-74
2024/01/18 08:14:57;;;;;;;18.75;7.90;;;2.50;99.90;;;;;;5076726;28;20017;-75
2024/01/18 08:17:23;;;;;;;11.18;5.95;;;2.60;99.90;;;;;;5094799;28;20024;-74
2024/01/18 08:19:48;;;;;;;13.15;8.07;;;2.50;99.90;;;;;;5094466;28;20462;-74
2024/01/18 08:22:15;;;;;;;15.65;7.15;;;2.50;99.90;;;;;;5095010;28;20024;-74
2024/01/18 08:24:41;;;;;;;10.43;5.47;;;2.50;99.90;;;;;;5076612;28;20028;-74
2024/01/18 08:27:07;;;;;;;26.85;5.60;;;2.50;99.90;;;;;;5094458;28;20024;-75
2024/01/18 08:29:34;;;;;;;20.42;5.78;;;2.50;99.90;;;;;;5094369;28;20039;-74
2024/01/18 08:32:01;;;;;;;15.65;5.88;;;2.60;99.90;;;;;;5094689;28;20077;-75
2024/01/18 08:34:27;;;;;;;9.43;4.65;;;2.70;99.90;;;;;;5076353;28;20055;-74
2024/01/18 08:36:52;;;;;;;16.45;5.35;;;2.70;99.90;;;;;;5094469;28;20059;-74
2024/01/18 08:39:19;;;;;;;14.32;5.22;;;2.70;99.90;;;;;;5075832;28;20118;-74
2024/01/18 08:41:44;;;;;;;10.23;4.85;;;2.70;99.90;;;;;;5092964;28;20012;-73
2024/01/18 08:44:10;;;;;;;13.60;5.85;;;2.80;99.90;;;;;;5076244;28;20027;-75
2024/01/18 08:46:38;;;;;;;6.93;4.50;;;2.80;99.90;;;;;;5094341;28;20028;-74
2024/01/18 08:49:04;;;;;;;16.90;4.90;;;2.80;99.90;;;;;;5088116;28;20020;-74
2024/01/18 08:51:30;;;;;;;7.72;4.22;;;2.80;99.90;;;;;;5073816;28;20112;-74
2024/01/18 08:53:55;;;;;;;9.98;5.13;;;2.90;99.90;;;;;;5073936;28;20052;-74
2024/01/18 08:56:21;;;;;;;10.82;5.43;;;2.90;99.90;;;;;;5073711;28;20036;-74
2024/01/18 08:58:46;;;;;;;15.88;5.72;;;2.90;99.90;;;;;;5055420;28;20394;-75
2024/01/18 09:01:12;;;;;;;12.00;5.35;;;2.80;99.90;;;;;;5073764;28;20023;-75
2024/01/18 09:03:38;;;;;;;12.50;5.75;;;2.90;99.90;;;;;;5073705;28;20052;-74
2024/01/18 09:06:04;;;;;;;16.45;6.78;;;2.90;99.90;;;;;;5073637;28;20021;-75
2024/01/18 09:08:29;;;;;;;15.77;7.18;;;3.00;99.90;;;;;;5073340;28;20044;-74
2024/01/18 09:10:55;;;;;;;12.30;5.78;;;3.00;99.90;;;;;;5073588;28;20028;-74
2024/01/18 09:13:20;;;;;;;13.80;5.97;;;3.10;99.90;;;;;;5073557;28;20035;-75
2024/01/18 09:15:47;;;;;;;12.75;5.75;;;3.10;99.90;;;;;;5075730;28;20020;-77
2024/01/18 09:18:13;;;;;;;16.08;7.35;;;3.20;99.90;;;;;;5075131;28;20028;-74
2024/01/18 09:20:40;;;;;;;16.80;7.50;;;3.20;99.90;;;;;;5075500;28;20028;-75
2024/01/18 09:23:05;;;;;;;14.35;8.45;;;3.20;99.90;;;;;;5075390;28;20020;-74
2024/01/18 09:25:31;;;;;;;17.05;8.60;;;3.20;99.90;;;;;;5093587;28;20504;-74
2024/01/18 09:27:56;;;;;;;20.52;8.38;;;3.30;99.90;;;;;;5093398;28;20032;-74
2024/01/18 09:30:23;;;;;;;14.55;7.85;;;3.30;99.90;;;;;;5093324;28;20078;-74
2024/01/18 09:32:49;;;;;;;17.17;7.22;;;3.30;99.90;;;;;;5093417;28;20026;-74
2024/01/18 09:35:15;;;;;;;14.88;6.10;;;3.40;99.90;;;;;;5093432;28;20095;-74
2024/01/18 09:37:40;;;;;;;13.57;7.10;;;3.30;99.90;;;;;;5074921;28;20054;-74
2024/01/18 09:40:11;;;;;;;18.95;7.15;;;3.30;99.90;;;;;;5092986;28;20024;-74
2024/01/18 09:42:43;;;;;;;21.65;6.25;;;3.30;99.90;;;;;;5075083;28;20394;-75
2024/01/18 09:45:11;;;;;;;16.02;7.32;;;3.30;99.90;;;;;;5092964;28;20417;-74
2024/01/18 09:47:37;;;;;;;16.98;6.85;;;3.40;99.90;;;;;;5092899;28;20020;-74
2024/01/18 09:50:03;;;;;;;18.48;7.32;;;3.40;99.90;;;;;;5092876;28;20023;-74
2024/01/18 09:52:29;;;;;;;17.60;6.05;;;3.50;99.90;;;;;;5074550;28;20486;-76
2024/01/18 09:54:54;;;;;;;14.77;6.03;;;3.50;99.90;;;;;;5093027;28;20059;-74
2024/01/18 09:57:30;;;;;;;12.55;6.85;;;3.60;99.90;;;;;;5073418;28;20397;-74
2024/01/18 09:59:58;;;;;;;10.90;6.32;;;3.70;99.90;;;;;;5092707;28;20435;-74
2024/01/18 10:02:25;;;;;;;16.02;7.22;;;3.80;99.90;;;;;;5074760;28;20031;-74
2024/01/18 10:05:00;;;;;;;18.20;6.28;;;3.90;99.90;;;;;;5096196;28;20054;-78
2024/01/18 10:07:28;;;;;;;10.15;5.75;;;3.90;99.90;;;;;;5078501;28;20161;-78
2024/01/18 10:09:54;;;;;;;19.92;9.68;;;4.10;99.90;;;;;;5096234;28;20043;-77
2024/01/18 10:12:20;;;;;;;20.52;11.30;;;4.50;99.90;;;;;;5097180;28;20482;-78
2024/01/18 10:14:46;;;;;;;12.77;8.02;;;4.50;99.90;;;;;;5070080;28;20028;-78
2024/01/18 10:17:22;;;;;;;10.18;6.55;;;4.70;99.90;;;;;;5078078;28;20028;-78
2024/01/18 10:19:54;;;;;;;13.82;6.72;;;4.70;99.90;;;;;;5076964;28;20035;-77
2024/01/18 10:22:21;;;;;;;11.68;6.50;;;4.60;99.90;;;;;;5078468;28;20047;-75
2024/01/18 10:24:47;;;;;;;14.63;7.07;;;4.80;99.90;;;;;;5097341;28;20047;-78
2024/01/18 10:27:13;;;;;;;16.67;7.03;;;4.80;99.90;;;;;;5099561;28;20111;-78
2024/01/18 10:29:40;;;;;;;17.58;7.03;;;4.80;99.90;;;;;;5079686;28;20110;-78
2024/01/18 10:32:08;;;;;;;13.77;7.07;;;4.70;99.90;;;;;;5097312;28;20027;-78
2024/01/18 10:34:38;;;;;;;12.57;6.55;;;4.80;99.90;;;;;;5096687;28;20042;-77
2024/01/18 10:37:04;;;;;;;21.85;9.32;;;4.90;99.90;;;;;;5094480;28;20025;-76
2024/01/18 10:39:43;;;;;;;21.42;11.60;;;4.80;99.90;;;;;;5077824;28;20030;-78
2024/01/18 10:42:10;;;;;;;20.55;10.63;;;4.70;99.90;;;;;;5095016;28;20023;-78
2024/01/18 10:44:43;;;;;;;29.25;11.85;;;4.70;99.90;;;;;;5095159;28;20474;-77
2024/01/18 10:47:15;;;;;;;22.17;10.80;;;4.70;99.90;;;;;;5095105;28;20020;-77
2024/01/18 10:49:43;;;;;;;17.73;9.75;;;4.60;99.90;;;;;;5074886;28;20431;-75
2024/01/18 10:52:11;;;;;;;20.77;10.13;;;4.50;99.90;;;;;;5077960;28;20093;-74
2024/01/18 10:54:37;;;;;;;14.63;8.80;;;4.60;99.90;;;;;;5056164;28;20554;-77
2024/01/18 10:57:04;;;;;;;13.85;8.25;;;4.60;99.90;;;;;;5076372;28;20043;-77
2024/01/18 10:59:30;;;;;;;12.73;8.70;;;4.50;99.90;;;;;;5060107;28;20024;-76
2024/01/18 11:02:00;;;;;;;17.75;9.13;;;4.50;99.90;;;;;;5072155;28;20086;-75
2024/01/18 11:04:33;;;;;;;15.77;7.25;;;4.50;99.90;;;;;;5071400;28;20154;-75
2024/01/18 11:06:59;;;;;;;18.20;9.40;;;4.50;99.90;;;;;;5060199;28;20394;-77
2024/01/18 11:09:26;;;;;;;19.05;8.20;;;4.50;99.90;;;;;;5055573;28;20028;-77
2024/01/18 11:11:53;;;;;;;16.15;7.95;;;4.50;99.90;;;;;;5054242;28;20433;-77
2024/01/18 11:14:20;;;;;;;16.20;6.78;;;4.50;99.90;;;;;;5072400;28;20021;-76
2024/01/18 11:16:46;;;;;;;19.92;6.30;;;4.60;99.90;;;;;;5054515;28;20490;-76
2024/01/18 11:19:11;;;;;;;10.65;6.03;;;4.70;99.90;;;;;;5072172;28;20039;-76
2024/01/18 11:21:38;;;;;;;14.95;6.72;;;4.70;99.90;;;;;;5054727;28;20029;-76
2024/01/18 11:24:08;;;;;;;14.70;7.32;;;4.70;99.90;;;;;;5073002;28;20475;-79
2024/01/18 11:26:34;;;;;;;20.23;8.88;;;4.90;99.90;;;;;;5072558;28;20025;-76
2024/01/18 11:29:18;;;;;;;19.48;8.60;;;5.00;99.90;;;;;;5071409;28;20414;-76
2024/01/18 11:31:51;;;;;;;19.42;11.27;;;5.10;99.90;;;;;;5071790;28;20025;-76
2024/01/18 11:34:30;;;;;;;16.08;8.43;;;5.20;99.90;;;;;;5071706;28;20032;-76
2024/01/18 11:37:18;;;;;;;15.50;6.78;;;5.20;99.90;;;;;;5071511;28;20479;-76
2024/01/18 11:39:49;;;;;;;14.80;8.77;;;5.30;99.90;;;;;;5071215;28;20024;-76
2024/01/18 11:42:18;;;;;;;17.55;9.00;;;5.40;99.90;;;;;;5053899;28;20017;-76
2024/01/18 11:44:59;;;;;;;15.27;7.68;;;5.40;99.90;;;;;;5071780;28;20017;-75
2024/01/18 11:47:29;;;;;;;15.23;7.20;;;5.60;99.90;;;;;;5071615;28;20032;-76
2024/01/18 11:49:55;;;;;;;16.40;7.75;;;5.60;99.90;;;;;;5070283;28;20028;-76
2024/01/18 11:52:22;;;;;;;16.48;8.63;;;5.60;99.90;;;;;;5071957;28;20035;-76
2024/01/18 11:54:51;;;;;;;15.02;7.70;;;5.80;99.90;;;;;;5053574;28;20029;-77
2024/01/18 11:57:17;;;;;;;17.08;8.52;;;5.90;99.90;;;;;;5073472;28;20095;-76
2024/01/18 11:59:46;;;;;;;23.27;9.18;;;6.00;99.90;;;;;;5076059;28;20029;-76
2024/01/18 12:02:12;;;;;;;15.20;8.77;;;6.00;99.90;;;;;;5054925;28;20027;-75
2024/01/18 12:04:38;;;;;;;16.40;9.60;;;6.10;99.90;;;;;;5071657;28;20412;-76
2024/01/18 12:07:05;;;;;;;18.10;9.20;;;6.20;99.90;;;;;;5071720;28;20020;-76
2024/01/18 12:09:31;;;;;;;12.57;7.63;;;6.30;99.90;;;;;;5071383;28;20032;-76
2024/01/18 12:11:57;;;;;;;11.85;6.95;;;6.40;99.90;;;;;;5071392;28;20039;-76
2024/01/18 12:14:23;;;;;;;15.15;8.05;;;6.50;99.90;;;;;;5053536;28;20032;-76
2024/01/18 12:16:49;;;;;;;12.52;6.90;;;6.50;99.90;;;;;;5075521;28;20028;-76
2024/01/18 12:19:32;;;;;;;11.15;6.93;;;6.50;99.90;;;;;;5075050;28;20543;-76
2024/01/18 12:22:00;;;;;;;13.77;7.28;;;6.60;99.90;;;;;;5076032;28;20013;-76
2024/01/18 12:24:26;;;;;;;14.45;7.20;;;6.60;99.90;;;;;;5057568;28;20493;-76
2024/01/18 12:26:52;;;;;;;24.80;8.02;;;6.70;99.90;;;;;;5074728;28;20050;-76
2024/01/18 12:29:22;;;;;;;12.35;7.75;;;6.70;99.90;;;;;;5074375;28;20033;-76
2024/01/18 12:31:49;;;;;;;12.80;7.38;;;6.70;99.90;;;;;;5056968;28;20025;-76
2024/01/18 12:34:19;;;;;;;10.75;7.05;;;6.80;99.90;;;;;;5057137;28;20036;-76
2024/01/18 12:36:46;;;;;;;11.50;6.13;;;6.80;99.90;;;;;;5074821;28;20509;-77
2024/01/18 12:39:12;;;;;;;13.25;7.18;;;6.80;99.90;;;;;;5074575;28;20502;-77
2024/01/18 12:41:38;;;;;;;13.00;7.50;;;6.80;99.90;;;;;;5074657;28;20058;-76
2024/01/18 12:44:07;;;;;;;15.25;6.90;;;6.80;99.90;;;;;;5074834;28;20055;-76